Aérodrome :
LOGIN :

S'inscrire | Disclaimer

   EN    FR    IT 

 










Légende :    VFR   VFR Marginal   IFR   IFR Intensif   IFR Très Intensif
Visi : 
Plafond : 
>= 8 km
>= 3000ft
5 à 8 km
1000 à 3000 ft
1500m à 5 km
500 à 1000 ft
800 à 1500m
200 à 500 ft
< 800m
< 200 ft
Symboles :   Orages  Brouillard  Fortes neiges  Fortes précipitations  Vent > 20 kt
SIGMETs :   Divers  Orages  Givrage  Turbulence  Onde Orograph.  Cendres Volcan.







- Altitude de l'aérodrome : 124 ft
- Code IATA : RNS
- Voir les cartes d'approche


LFRN - Rennes

DERNIER METAR :
  • 291100Z AUTO 15010KT 100V180 9999 BKN044 BKN054 16/05 Q1013 NOSIG

METARs EXPIRÉS :
  • 291030Z AUTO 15010KT 100V180 9999 BKN039 BKN050 15/05 Q1014 NOSIG
  • 291000Z AUTO 14010KT 9999 SCT038 15/06 Q1014 NOSIG
  • 290930Z AUTO 15008KT 110V190 CAVOK 14/06 Q1014 NOSIG
  • 290900Z AUTO 14008KT 110V190 9999 FEW027 13/06 Q1015 NOSIG
  • 290830Z AUTO 15004KT 070V180 CAVOK 12/06 Q1015 NOSIG

TAF TAF LFRN
Valide du 29 à 06h jusqu'au 30 à 06h UTC


290500Z 2906/3006 VRB03KT CAVOK
TEMPO 2906/2907 3000 BR
PROB30
TEMPO 2906/2907 0500 FG
BECMG 2908/2910 14010KT
PROB30
TEMPO 3004/3006 5000 RA
ATIS : +33 2 99 67 72 50
Pas de NOTAMs connus pour ce terrain.



MET'MAP, la Météo Aéronautique d'un coup d'oeil ! - Copyright ORBIFLY Décembre 2007 - Disclaimer

ORBIFLY MET'MAP TEAM :

Programmation & Développement : Alexandra Zaïnal
Conception & Développement : Baudouin d'Aumeries
Co-Programmation & Développement : Marc-Olivier Méhu
Soutien technique & logistique : Manuel Goepfert

Contact : metmap@orbifly.com




SOURCES & CREDITS :

   NOAA